Helene — V7VF9 — position and weather

sailwx.info

Track history (hours):
 
Tides and Currents Weather Stations Pressure Air Temp Water Temp Dewpoint Dewpoint Depression Visibility Wind Speed Wind Dir Waves Ship Positions

Helene

Last reported at 2018-Apr-10 14:24 UTC. Time now 2018-Apr-21 15:42 UTC.
Position S 24°01' W 046°20'.
Warning: this ship's position is 11 days out of date.

Length 207 m; draft 11.3 m.

Type: Cargo ship. MMSI: 538006866.

Date/timePositionNaut miles runAvg speedWind from/ knotsBaromVisibWave heightAir tempDewpointWater temp
2018-Apr-10 14:24S 24°01' W 046°20'2 6.0
2018-Apr-10 14:00S 23°60' W 046°18'3 6.9
2018-Apr-10 13:30S 23°56' W 046°19'1 1.5
2018-Apr-10 13:00S 23°56' W 046°19'0 0.0
2018-Apr-10 12:30S 23°56' W 046°19'0 0.0
2018-Apr-10 12:00S 23°56' W 046°19'0 0.0
2018-Apr-10 11:30S 23°56' W 046°19'0 0.0
2018-Apr-10 10:57S 23°56' W 046°19'0 0.0
2018-Apr-10 10:30S 23°56' W 046°19'0 0.0
2018-Apr-10 09:57S 23°56' W 046°19'0 0.0
2018-Apr-10 09:21S 23°56' W 046°19'0 0.0
2018-Apr-10 08:57S 23°56' W 046°19'0 0.0
2018-Apr-10 08:27S 23°56' W 046°19'0 0.0
2018-Apr-10 07:57S 23°56' W 046°19'0 0.0
2018-Apr-10 07:27S 23°56' W 046°19'0 0.0
2018-Apr-10 06:57S 23°56' W 046°19'0 0.0
2018-Apr-10 06:30S 23°56' W 046°19'0 0.0
2018-Apr-10 05:51S 23°56' W 046°19'0 0.0
2018-Apr-10 05:30S 23°56' W 046°19'0 0.0
2018-Apr-10 04:57S 23°56' W 046°19'0 0.1
2018-Apr-10 04:30S 23°56' W 046°19'0 0.0
2018-Apr-10 03:44S 23°56' W 046°19'0 0.0
2018-Apr-10 03:26S 23°56' W 046°19'0 0.0
2018-Apr-10 02:59S 23°56' W 046°19'0 0.0
2018-Apr-10 02:26S 23°56' W 046°19'0 0.0
2018-Apr-10 01:56S 23°56' W 046°19'0 0.0
2018-Apr-10 01:26S 23°56' W 046°19'0 0.0
2018-Apr-10 00:56S 23°56' W 046°19'0 0.0
2018-Apr-10 00:20S 23°56' W 046°19'0 0.0
2018-Apr-09 23:50S 23°56' W 046°19'0 0.0
2018-Apr-09 23:29S 23°56' W 046°19'0 0.0
2018-Apr-09 22:56S 23°56' W 046°19'0 0.0
2018-Apr-09 22:23S 23°56' W 046°19'0 0.0
2018-Apr-09 21:56S 23°56' W 046°19'0 0.0
2018-Apr-09 21:17S 23°56' W 046°19'0 0.0
2018-Apr-09 20:44S 23°56' W 046°19'0 0.0
2018-Apr-09 20:26S 23°56' W 046°19'0 0.0
2018-Apr-09 19:56S 23°56' W 046°19'0 0.0
2018-Apr-09 19:26S 23°56' W 046°19'0 0.0
2018-Apr-09 18:56S 23°56' W 046°19'0 0.0
2018-Apr-09 18:29S 23°56' W 046°19'0 0.0
2018-Apr-09 17:59S 23°56' W 046°19'0 0.0
2018-Apr-09 17:26S 23°56' W 046°19'0 0.0
2018-Apr-09 16:56S 23°56' W 046°19'0 0.0
2018-Apr-09 16:26S 23°56' W 046°19'0 0.0
2018-Apr-09 15:53S 23°56' W 046°19'0 0.0
2018-Apr-09 15:20S 23°56' W 046°19'0 0.0
2018-Apr-09 14:59S 23°56' W 046°19'0 0.0
2018-Apr-09 14:26S 23°56' W 046°19'0 0.0
2018-Apr-09 13:50S 23°56' W 046°19'0 0.0
2018-Apr-09 13:29S 23°56' W 046°19'0 0.0
2018-Apr-09 12:56S 23°56' W 046°19'0 0.3
2018-Apr-09 12:24S 23°56' W 046°19'3 6.6
2018-Apr-09 12:00S 23°58' W 046°18'3 6.9
2018-Apr-09 11:30S 24°01' W 046°20'3 5.4
2018-Apr-09 11:00S 24°03' W 046°21'4 7.7
2018-Apr-09 10:27S 24°07' W 046°23'4 8.0
2018-Apr-09 09:59S 24°11' W 046°24'  
Track history (hours):
 
Tides and Currents Weather Stations Pressure Air Temp Water Temp Dewpoint Dewpoint Depression Visibility Wind Speed Wind Dir Waves Ship Positions

Helene

Last reported at 2018-Apr-10 14:24 UTC. Time now 2018-Apr-21 15:42 UTC.
Position S 24°01' W 046°20'.
Warning: this ship's position is 11 days out of date.

Length 207 m; draft 11.3 m.

Type: Cargo ship. MMSI: 538006866.

Date/timePositionNaut miles runAvg speedWind from/ knotsBaromVisibWave heightAir tempDewpointWater temp
2018-Apr-10 14:24S 24°01' W 046°20'2 6.0
2018-Apr-10 14:00S 23°60' W 046°18'3 6.9
2018-Apr-10 13:30S 23°56' W 046°19'1 1.5
2018-Apr-10 13:00S 23°56' W 046°19'0 0.0
2018-Apr-10 12:30S 23°56' W 046°19'0 0.0
2018-Apr-10 12:00S 23°56' W 046°19'0 0.0
2018-Apr-10 11:30S 23°56' W 046°19'0 0.0
2018-Apr-10 10:57S 23°56' W 046°19'0 0.0
2018-Apr-10 10:30S 23°56' W 046°19'0 0.0
2018-Apr-10 09:57S 23°56' W 046°19'0 0.0
2018-Apr-10 09:21S 23°56' W 046°19'0 0.0
2018-Apr-10 08:57S 23°56' W 046°19'0 0.0
2018-Apr-10 08:27S 23°56' W 046°19'0 0.0
2018-Apr-10 07:57S 23°56' W 046°19'0 0.0
2018-Apr-10 07:27S 23°56' W 046°19'0 0.0
2018-Apr-10 06:57S 23°56' W 046°19'0 0.0
2018-Apr-10 06:30S 23°56' W 046°19'0 0.0
2018-Apr-10 05:51S 23°56' W 046°19'0 0.0
2018-Apr-10 05:30S 23°56' W 046°19'0 0.0
2018-Apr-10 04:57S 23°56' W 046°19'0 0.1
2018-Apr-10 04:30S 23°56' W 046°19'0 0.0
2018-Apr-10 03:44S 23°56' W 046°19'0 0.0
2018-Apr-10 03:26S 23°56' W 046°19'0 0.0
2018-Apr-10 02:59S 23°56' W 046°19'0 0.0
2018-Apr-10 02:26S 23°56' W 046°19'0 0.0
2018-Apr-10 01:56S 23°56' W 046°19'0 0.0
2018-Apr-10 01:26S 23°56' W 046°19'0 0.0
2018-Apr-10 00:56S 23°56' W 046°19'0 0.0
2018-Apr-10 00:20S 23°56' W 046°19'0 0.0
2018-Apr-09 23:50S 23°56' W 046°19'0 0.0
2018-Apr-09 23:29S 23°56' W 046°19'0 0.0
2018-Apr-09 22:56S 23°56' W 046°19'0 0.0
2018-Apr-09 22:23S 23°56' W 046°19'0 0.0
2018-Apr-09 21:56S 23°56' W 046°19'0 0.0
2018-Apr-09 21:17S 23°56' W 046°19'0 0.0
2018-Apr-09 20:44S 23°56' W 046°19'0 0.0
2018-Apr-09 20:26S 23°56' W 046°19'0 0.0
2018-Apr-09 19:56S 23°56' W 046°19'0 0.0
2018-Apr-09 19:26S 23°56' W 046°19'0 0.0
2018-Apr-09 18:56S 23°56' W 046°19'0 0.0
2018-Apr-09 18:29S 23°56' W 046°19'0 0.0
2018-Apr-09 17:59S 23°56' W 046°19'0 0.0
2018-Apr-09 17:26S 23°56' W 046°19'0 0.0
2018-Apr-09 16:56S 23°56' W 046°19'0 0.0
2018-Apr-09 16:26S 23°56' W 046°19'0 0.0
2018-Apr-09 15:53S 23°56' W 046°19'0 0.0
2018-Apr-09 15:20S 23°56' W 046°19'0 0.0
2018-Apr-09 14:59S 23°56' W 046°19'0 0.0
2018-Apr-09 14:26S 23°56' W 046°19'0 0.0
2018-Apr-09 13:50S 23°56' W 046°19'0 0.0
2018-Apr-09 13:29S 23°56' W 046°19'0 0.0
2018-Apr-09 12:56S 23°56' W 046°19'0 0.3
2018-Apr-09 12:24S 23°56' W 046°19'3 6.6
2018-Apr-09 12:00S 23°58' W 046°18'3 6.9
2018-Apr-09 11:30S 24°01' W 046°20'3 5.4
2018-Apr-09 11:00S 24°03' W 046°21'4 7.7
2018-Apr-09 10:27S 24°07' W 046°23'4 8.0
2018-Apr-09 09:59S 24°11' W 046°24'  

Dump ship's entire track history